createdAt,value
2019-06-01T00:00:19.199Z,16.40
2019-06-01T00:02:52.637Z,16.40
2019-06-01T00:05:15.023Z,16.30
2019-06-01T00:07:42.942Z,16.20
2019-06-01T00:10:10.363Z,16.20
2019-06-01T00:12:37.259Z,16.10
2019-06-01T00:15:04.490Z,16.30
2019-06-01T00:17:31.256Z,16.00
2019-06-01T00:19:58.129Z,16.10
2019-06-01T00:22:24.882Z,16.00
2019-06-01T00:24:52.289Z,16.00
2019-06-01T00:27:19.375Z,16.00
2019-06-01T00:29:46.792Z,15.90
2019-06-01T00:32:13.827Z,16.00
2019-06-01T00:34:41.276Z,16.00
2019-06-01T00:37:08.185Z,16.00
2019-06-01T00:39:35.216Z,16.00
2019-06-01T00:42:02.082Z,16.00
2019-06-01T00:44:28.816Z,15.80
2019-06-01T00:46:55.717Z,15.80
2019-06-01T00:49:22.578Z,15.80
2019-06-01T00:51:49.543Z,15.80
2019-06-01T00:54:16.464Z,15.80
2019-06-01T00:56:43.515Z,15.80
2019-06-01T00:59:10.455Z,15.80
2019-06-01T01:01:37.455Z,15.80
2019-06-01T01:04:04.419Z,15.80
2019-06-01T01:06:31.256Z,15.80
2019-06-01T01:08:58.127Z,15.70
2019-06-01T01:11:24.872Z,15.70
2019-06-01T01:13:51.633Z,15.70
2019-06-01T01:16:18.647Z,15.80
2019-06-01T01:18:45.647Z,15.80
2019-06-01T01:21:12.653Z,15.70
2019-06-01T01:23:39.519Z,15.70
2019-06-01T01:26:06.281Z,15.70
2019-06-01T01:28:33.149Z,15.60
2019-06-01T01:31:12.376Z,15.60
2019-06-01T01:33:28.604Z,15.70
2019-06-01T01:35:55.864Z,15.60
2019-06-01T01:38:22.892Z,15.60
2019-06-01T01:40:50.094Z,15.60
2019-06-01T01:43:17.148Z,15.50
2019-06-01T01:45:44.016Z,15.50
2019-06-01T01:48:10.929Z,15.40
2019-06-01T01:50:37.688Z,15.30
2019-06-01T01:53:04.531Z,15.20
2019-06-01T01:55:31.520Z,15.30
2019-06-01T01:57:59.541Z,15.20
2019-06-01T02:00:36.967Z,15.20
2019-06-01T02:03:04.888Z,15.10
2019-06-01T02:05:31.784Z,15.10
2019-06-01T02:08:00.090Z,15.10
2019-06-01T02:10:27.428Z,15.10
2019-06-01T02:12:55.365Z,15.10
2019-06-01T02:15:22.355Z,15.10
2019-06-01T02:17:49.211Z,15.00
2019-06-01T02:20:16.194Z,15.00
2019-06-01T02:22:43.055Z,14.90
2019-06-01T02:25:09.917Z,14.80
2019-06-01T02:27:36.779Z,14.80
2019-06-01T02:30:05.615Z,14.80
2019-06-01T02:32:32.820Z,14.80
2019-06-01T02:35:00.309Z,14.70
2019-06-01T02:37:27.308Z,14.80
2019-06-01T02:39:54.449Z,14.80
2019-06-01T02:42:21.584Z,14.80
2019-06-01T02:44:48.448Z,14.70
2019-06-01T02:47:15.411Z,14.70
2019-06-01T02:49:42.156Z,14.70
2019-06-01T02:52:09.115Z,14.70
2019-06-01T02:54:36.144Z,14.60
2019-06-01T02:57:04.105Z,14.60
2019-06-01T02:59:31.167Z,14.60
2019-06-01T03:02:04.823Z,14.60
2019-06-01T03:04:26.928Z,14.60
2019-06-01T03:06:54.637Z,14.60
2019-06-01T03:09:23.132Z,14.60
2019-06-01T03:11:52.105Z,14.60
2019-06-01T03:14:20.764Z,14.50
2019-06-01T03:16:50.390Z,14.50
2019-06-01T03:19:19.419Z,14.50
2019-06-01T03:21:49.207Z,14.50
2019-06-01T03:24:21.523Z,14.50
2019-06-01T03:26:48.355Z,14.50
2019-06-01T03:29:18.322Z,14.50
2019-06-01T03:31:45.941Z,14.50
2019-06-01T03:34:13.941Z,14.50
2019-06-01T03:36:41.733Z,14.50
2019-06-01T03:39:08.607Z,14.50
2019-06-01T03:41:35.699Z,14.50
2019-06-01T03:44:02.859Z,14.50
2019-06-01T03:46:29.847Z,14.50
2019-06-01T03:48:56.616Z,14.50
2019-06-01T03:51:23.567Z,14.60
2019-06-01T03:53:50.435Z,14.60
2019-06-01T03:56:17.282Z,14.60
2019-06-01T03:58:44.210Z,14.70
2019-06-01T04:01:11.271Z,14.60
2019-06-01T04:03:38.004Z,14.60
2019-06-01T04:06:05.335Z,14.60
2019-06-01T04:08:32.262Z,14.60
2019-06-01T04:10:59.291Z,14.60
2019-06-01T04:13:26.302Z,14.60
2019-06-01T04:15:53.147Z,14.60
2019-06-01T04:18:19.896Z,14.60
2019-06-01T04:20:46.783Z,14.60
2019-06-01T04:23:13.617Z,14.70
2019-06-01T04:25:40.492Z,14.70
2019-06-01T04:28:12.541Z,14.80
2019-06-01T04:30:39.612Z,14.80
2019-06-01T04:33:06.995Z,14.80
2019-06-01T04:35:34.147Z,14.90
2019-06-01T04:38:00.927Z,15.00
2019-06-01T04:40:28.037Z,15.00
2019-06-01T04:42:54.903Z,15.10
2019-06-01T04:45:21.638Z,15.20
2019-06-01T04:47:48.359Z,15.30
2019-06-01T04:50:15.423Z,15.40
2019-06-01T04:52:42.123Z,15.50
2019-06-01T04:55:09.474Z,15.60
2019-06-01T04:57:36.359Z,15.70
2019-06-01T05:00:09.888Z,15.90
2019-06-01T05:02:32.969Z,16.00
2019-06-01T05:05:00.075Z,16.20
2019-06-01T05:07:26.956Z,16.30
2019-06-01T05:09:53.691Z,16.40
2019-06-01T05:12:20.735Z,16.50
2019-06-01T05:14:47.611Z,16.60
2019-06-01T05:17:15.034Z,16.70
2019-06-01T05:19:43.023Z,16.90
2019-06-01T05:22:10.520Z,17.10
2019-06-01T05:24:37.656Z,17.30
2019-06-01T05:27:04.367Z,17.60
2019-06-01T05:29:31.588Z,17.90
2019-06-01T05:31:58.495Z,18.10
2019-06-01T05:34:25.252Z,18.30
2019-06-01T05:36:52.087Z,18.40
2019-06-01T05:39:18.930Z,18.70
2019-06-01T05:41:45.931Z,18.90
2019-06-01T05:44:12.904Z,19.10
2019-06-01T05:46:39.715Z,19.30
2019-06-01T05:49:06.649Z,19.50
2019-06-01T05:51:33.601Z,19.50
2019-06-01T05:54:00.439Z,19.70
2019-06-01T05:56:27.434Z,19.80
2019-06-01T05:58:54.208Z,20.00
2019-06-01T06:01:20.972Z,20.40
2019-06-01T06:03:47.847Z,21.00
2019-06-01T06:06:15.732Z,21.50
2019-06-01T06:08:42.648Z,21.80
2019-06-01T06:11:10.744Z,22.10
2019-06-01T06:13:37.962Z,22.40
2019-06-01T06:16:04.852Z,23.00
2019-06-01T06:18:31.669Z,23.10
2019-06-01T06:20:58.499Z,23.20
2019-06-01T06:23:25.286Z,23.10
2019-06-01T06:25:52.082Z,22.80
2019-06-01T06:28:19.087Z,23.10
2019-06-01T06:30:45.947Z,23.30
2019-06-01T06:33:13.159Z,23.20
2019-06-01T06:35:40.326Z,23.20
2019-06-01T06:38:07.099Z,23.30
2019-06-01T06:40:33.869Z,23.80
2019-06-01T06:43:00.740Z,24.20
2019-06-01T06:45:27.503Z,24.50
2019-06-01T06:47:54.239Z,24.40
2019-06-01T06:50:21.455Z,24.50
2019-06-01T06:52:48.264Z,24.60
2019-06-01T06:55:15.728Z,24.80
2019-06-01T06:57:42.764Z,24.60
2019-06-01T07:00:10.367Z,24.60
2019-06-01T07:02:37.173Z,24.90
2019-06-01T07:05:04.452Z,25.10
2019-06-01T07:07:31.333Z,24.90
2019-06-01T07:09:58.330Z,25.20
2019-06-01T07:12:25.441Z,25.30
2019-06-01T07:14:52.535Z,25.60
2019-06-01T07:17:19.550Z,25.40
2019-06-01T07:19:46.493Z,25.30
2019-06-01T07:22:16.766Z,24.80
2019-06-01T07:24:41.997Z,24.70
2019-06-01T07:27:08.891Z,24.90
2019-06-01T07:29:35.688Z,24.80
2019-06-01T07:32:02.631Z,25.00
2019-06-01T07:34:39.789Z,25.70
2019-06-01T07:36:58.978Z,26.10
2019-06-01T07:39:26.823Z,26.60
2019-06-01T07:41:53.946Z,27.40
2019-06-01T07:44:21.256Z,27.80
2019-06-01T07:46:48.187Z,28.40
2019-06-01T07:49:14.986Z,28.80
2019-06-01T07:51:42.073Z,29.20
2019-06-01T07:54:08.906Z,29.50
2019-06-01T07:56:35.770Z,28.70
2019-06-01T07:59:02.727Z,28.30
2019-06-01T08:01:30.903Z,28.30
2019-06-01T08:03:58.215Z,28.60
2019-06-01T08:06:26.117Z,28.10
2019-06-01T08:08:55.742Z,27.60
2019-06-01T08:11:25.268Z,27.80
2019-06-01T08:13:51.347Z,28.10
2019-06-01T08:16:18.207Z,28.60
2019-06-01T08:18:44.953Z,29.10
2019-06-01T08:21:11.823Z,29.00
2019-06-01T08:23:38.707Z,29.30
2019-06-01T08:26:05.693Z,29.50
2019-06-01T08:28:32.791Z,29.80
2019-06-01T08:30:59.676Z,30.50
2019-06-01T08:33:30.175Z,30.40
2019-06-01T08:35:55.240Z,30.90
2019-06-01T08:38:23.360Z,30.60
2019-06-01T08:40:50.555Z,30.10
2019-06-01T08:43:17.520Z,30.50
2019-06-01T08:45:44.392Z,30.40
2019-06-01T08:48:11.170Z,30.40
2019-06-01T08:50:38.059Z,30.70
2019-06-01T08:53:04.843Z,31.00
2019-06-01T08:55:32.289Z,31.50
2019-06-01T08:57:59.751Z,31.80
2019-06-01T09:00:26.606Z,32.10
2019-06-01T09:02:53.392Z,32.10
2019-06-01T09:05:24.254Z,31.90
2019-06-01T09:07:54.943Z,32.30
2019-06-01T09:10:21.840Z,31.00
2019-06-01T09:12:48.717Z,31.90
2019-06-01T09:15:15.565Z,32.90
2019-06-01T09:17:42.504Z,32.40
2019-06-01T09:20:09.545Z,32.70
2019-06-01T09:22:36.286Z,32.20
2019-06-01T09:25:03.716Z,32.30
2019-06-01T09:27:31.840Z,32.90
2019-06-01T09:29:59.105Z,33.60
2019-06-01T09:32:26.106Z,33.80
2019-06-01T09:34:53.071Z,33.60
2019-06-01T09:37:19.914Z,33.60
2019-06-01T09:39:46.935Z,33.60
2019-06-01T09:42:13.836Z,34.10
2019-06-01T09:44:40.682Z,33.80
2019-06-01T09:47:07.675Z,33.90
2019-06-01T09:49:35.800Z,33.00
2019-06-01T09:52:03.244Z,32.20
2019-06-01T09:54:31.480Z,32.20
2019-06-01T09:56:59.116Z,32.20
2019-06-01T09:59:25.975Z,32.30
2019-06-01T10:01:52.703Z,33.10
2019-06-01T10:04:19.704Z,33.70
2019-06-01T10:06:46.568Z,33.10
2019-06-01T10:09:13.413Z,32.80
2019-06-01T10:11:40.355Z,32.50
2019-06-01T10:14:07.194Z,33.00
2019-06-01T10:16:34.561Z,33.70
2019-06-01T10:19:01.375Z,33.50
2019-06-01T10:21:29.751Z,33.00
2019-06-01T10:23:56.859Z,33.00
2019-06-01T10:26:23.633Z,34.10
2019-06-01T10:28:50.418Z,34.20
2019-06-01T10:31:17.194Z,33.40
2019-06-01T10:33:44.223Z,33.50
2019-06-01T10:36:20.268Z,33.50
2019-06-01T10:38:39.775Z,34.10
2019-06-01T10:41:06.552Z,35.00
2019-06-01T10:43:33.718Z,34.70
2019-06-01T10:46:00.685Z,34.90
2019-06-01T10:48:27.444Z,35.50
2019-06-01T10:50:54.346Z,34.60
2019-06-01T10:53:21.275Z,34.90
2019-06-01T10:55:48.304Z,35.70
2019-06-01T10:58:16.713Z,35.50
2019-06-01T11:00:50.168Z,35.30
2019-06-01T11:03:12.251Z,36.10
2019-06-01T11:05:39.239Z,35.50
2019-06-01T11:08:06.239Z,35.70
2019-06-01T11:10:33.246Z,34.50
2019-06-01T11:13:00.059Z,35.20
2019-06-01T11:15:26.937Z,33.80
2019-06-01T11:17:53.911Z,34.90
2019-06-01T11:20:20.960Z,35.80
2019-06-01T11:22:47.699Z,36.70
2019-06-01T11:25:14.673Z,37.50
2019-06-01T11:27:41.945Z,37.10
2019-06-01T11:30:09.459Z,36.00
2019-06-01T11:32:36.331Z,34.70
2019-06-01T11:35:04.896Z,34.80
2019-06-01T11:37:31.724Z,34.00
2019-06-01T11:39:58.727Z,33.60
2019-06-01T11:42:25.587Z,33.90
2019-06-01T11:44:53.691Z,33.90
2019-06-01T11:47:20.571Z,35.00
2019-06-01T11:49:47.527Z,35.40
2019-06-01T11:52:14.377Z,34.40
2019-06-01T11:54:41.347Z,33.50
2019-06-01T11:57:08.254Z,33.20
2019-06-01T11:59:35.345Z,33.60
2019-06-01T12:02:02.418Z,33.30
2019-06-01T12:04:29.127Z,33.40
2019-06-01T12:06:56.087Z,32.70
2019-06-01T12:09:23.103Z,33.00
2019-06-01T12:11:49.847Z,33.10
2019-06-01T12:14:16.744Z,33.30
2019-06-01T12:16:44.752Z,32.60
2019-06-01T12:19:11.875Z,32.70
2019-06-01T12:21:38.910Z,32.90
2019-06-01T12:24:06.022Z,32.90
2019-06-01T12:26:33.015Z,32.50
2019-06-01T12:29:00.003Z,32.20
2019-06-01T12:31:27.089Z,31.90
2019-06-01T12:33:53.948Z,31.60
2019-06-01T12:36:20.659Z,30.90
2019-06-01T12:38:51.249Z,30.60
2019-06-01T12:41:18.543Z,30.30
2019-06-01T12:43:47.801Z,30.00
2019-06-01T12:46:14.972Z,29.40
2019-06-01T12:48:41.851Z,29.30
2019-06-01T12:51:08.764Z,29.00
2019-06-01T12:53:35.523Z,28.90
2019-06-01T12:56:02.393Z,28.90
2019-06-01T12:58:29.403Z,28.80
2019-06-01T13:00:56.423Z,28.80
2019-06-01T13:03:23.243Z,28.30
2019-06-01T13:05:50.084Z,27.90
2019-06-01T13:08:17.075Z,27.90
2019-06-01T13:10:45.058Z,28.00
2019-06-01T13:13:12.201Z,28.20
2019-06-01T13:15:38.951Z,28.20
2019-06-01T13:18:05.711Z,28.40
2019-06-01T13:20:32.577Z,28.40
2019-06-01T13:22:59.483Z,28.40
2019-06-01T13:25:26.373Z,28.40
2019-06-01T13:27:53.111Z,28.40
2019-06-01T13:30:20.095Z,28.50
2019-06-01T13:32:46.843Z,28.50
2019-06-01T13:35:14.059Z,28.50
2019-06-01T13:37:40.928Z,28.60
2019-06-01T13:40:08.464Z,28.60
2019-06-01T13:42:35.216Z,28.50
2019-06-01T13:45:02.475Z,28.40
2019-06-01T13:47:29.372Z,28.60
2019-06-01T13:49:56.086Z,28.70
2019-06-01T13:52:22.813Z,28.80
2019-06-01T13:54:50.619Z,28.90
2019-06-01T13:57:17.456Z,28.70
2019-06-01T13:59:44.631Z,28.70
2019-06-01T14:02:11.632Z,28.60
2019-06-01T14:04:38.757Z,28.40
2019-06-01T14:07:05.507Z,28.40
2019-06-01T14:09:32.391Z,28.50
2019-06-01T14:11:59.317Z,29.40
2019-06-01T14:14:26.051Z,28.70
2019-06-01T14:16:53.567Z,28.70
2019-06-01T14:19:20.539Z,28.70
2019-06-01T14:21:47.821Z,28.60
2019-06-01T14:24:15.108Z,28.50
2019-06-01T14:26:42.096Z,28.50
2019-06-01T14:29:08.936Z,28.70
2019-06-01T14:31:35.809Z,28.70
2019-06-01T14:34:03.112Z,28.70
2019-06-01T14:36:29.935Z,28.50
2019-06-01T14:38:58.809Z,28.70
2019-06-01T14:41:25.717Z,28.80
2019-06-01T14:43:53.658Z,28.90
2019-06-01T14:46:20.653Z,28.90
2019-06-01T14:48:47.508Z,29.00
2019-06-01T14:51:14.337Z,28.80
2019-06-01T14:53:41.113Z,28.80
2019-06-01T14:56:07.997Z,30.00
2019-06-01T14:58:34.907Z,28.80
2019-06-01T15:01:01.752Z,28.90
2019-06-01T15:03:28.544Z,28.90
2019-06-01T15:05:56.540Z,28.60
2019-06-01T15:08:23.774Z,28.50
2019-06-01T15:10:50.840Z,28.50
2019-06-01T15:13:17.787Z,28.50
2019-06-01T15:15:44.623Z,28.60
2019-06-01T15:18:11.455Z,28.60
2019-06-01T15:20:38.199Z,28.70
2019-06-01T15:23:05.228Z,28.60
2019-06-01T15:25:32.195Z,28.50
2019-06-01T15:27:59.061Z,28.50
2019-06-01T15:30:26.045Z,28.40
2019-06-01T15:32:54.014Z,28.30
2019-06-01T15:35:21.056Z,28.30
2019-06-01T15:37:48.053Z,28.30
2019-06-01T15:40:15.087Z,28.30
2019-06-01T15:42:41.811Z,28.30
2019-06-01T15:45:11.515Z,28.30
2019-06-01T15:47:38.379Z,28.40
2019-06-01T15:50:06.198Z,28.50
2019-06-01T15:52:33.226Z,28.60
2019-06-01T15:55:00.509Z,28.50
2019-06-01T15:57:27.732Z,28.50
2019-06-01T15:59:54.625Z,28.50
2019-06-01T16:02:21.536Z,28.50
2019-06-01T16:04:48.391Z,28.50
2019-06-01T16:07:16.240Z,28.30
2019-06-01T16:09:43.587Z,28.20
2019-06-01T16:12:10.635Z,28.10
2019-06-01T16:14:37.505Z,28.10
2019-06-01T16:17:04.736Z,28.00
2019-06-01T16:19:31.951Z,27.90
2019-06-01T16:22:00.232Z,28.00
2019-06-01T16:24:27.155Z,28.10
2019-06-01T16:26:54.242Z,28.00
2019-06-01T16:29:21.037Z,28.10
2019-06-01T16:31:47.870Z,27.90
2019-06-01T16:34:14.674Z,27.90
2019-06-01T16:36:41.875Z,27.90
2019-06-01T16:39:09.059Z,27.90
2019-06-01T16:41:40.711Z,28.00
2019-06-01T16:44:06.952Z,28.00
2019-06-01T16:46:33.804Z,27.90
2019-06-01T16:49:01.573Z,28.00
2019-06-01T16:51:49.039Z,27.90
2019-06-01T16:54:15.970Z,27.90
2019-06-01T16:56:42.896Z,27.40
2019-06-01T16:59:10.239Z,27.90
2019-06-01T17:01:37.087Z,27.80
2019-06-01T17:04:04.689Z,27.80
2019-06-01T17:06:32.112Z,27.70
2019-06-01T17:08:58.981Z,27.80
2019-06-01T17:11:25.887Z,27.90
2019-06-01T17:13:52.627Z,27.90
2019-06-01T17:16:19.414Z,27.90
2019-06-01T17:18:46.407Z,27.70
2019-06-01T17:21:13.302Z,27.70
2019-06-01T17:23:40.175Z,27.80
2019-06-01T17:26:08.801Z,27.70
2019-06-01T17:28:35.961Z,27.60
2019-06-01T17:31:04.249Z,27.60
2019-06-01T17:33:31.482Z,27.60
2019-06-01T17:35:58.648Z,27.60
2019-06-01T17:38:25.807Z,27.50
2019-06-01T17:40:52.665Z,27.60
2019-06-01T17:43:19.513Z,27.50
2019-06-01T17:45:46.453Z,27.50
2019-06-01T17:48:24.808Z,27.50
2019-06-01T17:50:42.204Z,27.40
2019-06-01T17:53:09.241Z,27.40
2019-06-01T17:55:37.451Z,27.40
2019-06-01T17:58:05.611Z,27.30
2019-06-01T18:00:32.901Z,27.20
2019-06-01T18:02:59.860Z,27.10
2019-06-01T18:05:26.835Z,27.00
2019-06-01T18:07:56.417Z,27.00
2019-06-01T18:10:24.295Z,27.00
2019-06-01T18:12:51.351Z,26.90
2019-06-01T18:15:18.644Z,26.90
2019-06-01T18:17:48.175Z,26.80
2019-06-01T18:20:15.341Z,26.80
2019-06-01T18:22:42.172Z,26.60
2019-06-01T18:25:11.071Z,26.60
2019-06-01T18:27:37.947Z,26.50
2019-06-01T18:30:05.043Z,26.50
2019-06-01T18:32:31.999Z,26.40
2019-06-01T18:34:58.867Z,26.40
2019-06-01T18:37:25.927Z,26.40
2019-06-01T18:39:52.951Z,26.30
2019-06-01T18:42:23.748Z,26.20
2019-06-01T18:44:51.590Z,26.10
2019-06-01T18:47:31.923Z,26.00
2019-06-01T18:49:47.419Z,25.90
2019-06-01T18:52:14.847Z,25.90
2019-06-01T18:54:41.960Z,25.80
2019-06-01T18:57:15.516Z,25.70
2019-06-01T18:59:37.510Z,25.60
2019-06-01T19:02:04.534Z,25.60
2019-06-01T19:04:31.305Z,25.50
2019-06-01T19:06:58.041Z,25.30
2019-06-01T19:09:24.892Z,25.20
2019-06-01T19:11:51.690Z,25.00
2019-06-01T19:14:18.670Z,24.90
2019-06-01T19:16:45.555Z,24.80
2019-06-01T19:19:12.628Z,24.60
2019-06-01T19:21:39.633Z,24.50
2019-06-01T19:24:06.488Z,24.30
2019-06-01T19:26:33.427Z,24.20
2019-06-01T19:29:00.384Z,24.00
2019-06-01T19:31:27.359Z,23.90
2019-06-01T19:33:54.116Z,23.80
2019-06-01T19:36:21.395Z,23.60
2019-06-01T19:38:48.935Z,23.50
2019-06-01T19:41:15.816Z,23.30
2019-06-01T19:43:42.700Z,23.10
2019-06-01T19:46:09.749Z,23.00
2019-06-01T19:48:36.639Z,22.90
2019-06-01T19:51:03.612Z,22.80
2019-06-01T19:53:30.496Z,22.70
2019-06-01T19:55:57.407Z,22.50
2019-06-01T19:58:24.457Z,22.50
2019-06-01T20:00:51.327Z,22.40
2019-06-01T20:03:20.707Z,22.30
2019-06-01T20:05:47.027Z,22.10
2019-06-01T20:08:14.331Z,22.00
2019-06-01T20:10:41.436Z,21.90
2019-06-01T20:13:08.296Z,21.80
2019-06-01T20:15:35.192Z,21.80
2019-06-01T20:18:02.060Z,21.70
2019-06-01T20:20:29.146Z,21.70
2019-06-01T20:22:56.756Z,21.60
2019-06-01T20:25:23.713Z,21.60
2019-06-01T20:27:50.575Z,21.50
2019-06-01T20:30:19.889Z,21.50
2019-06-01T20:32:47.006Z,21.40
2019-06-01T20:35:14.151Z,21.40
2019-06-01T20:37:40.917Z,21.30
2019-06-01T20:40:08.054Z,21.30
2019-06-01T20:42:35.187Z,21.20
2019-06-01T20:45:02.537Z,21.30
2019-06-01T20:47:29.278Z,21.00
2019-06-01T20:49:56.226Z,21.00
2019-06-01T20:52:23.368Z,20.90
2019-06-01T20:54:50.367Z,20.80
2019-06-01T20:57:17.529Z,20.70
2019-06-01T20:59:44.561Z,20.60
2019-06-01T21:02:11.403Z,20.60
2019-06-01T21:04:38.288Z,20.50
2019-06-01T21:07:05.291Z,20.40
2019-06-01T21:09:32.045Z,20.30
2019-06-01T21:11:58.911Z,20.20
2019-06-01T21:14:25.849Z,20.20
2019-06-01T21:16:52.871Z,20.10
2019-06-01T21:19:20.413Z,20.00
2019-06-01T21:21:47.464Z,20.00
2019-06-01T21:24:14.785Z,19.90
2019-06-01T21:26:41.792Z,20.00
2019-06-01T21:29:08.555Z,19.90
2019-06-01T21:31:35.575Z,19.80
2019-06-01T21:34:02.447Z,19.90
2019-06-01T21:36:29.404Z,19.70
2019-06-01T21:38:56.283Z,19.70
2019-06-01T21:41:23.755Z,19.70
2019-06-01T21:43:50.745Z,19.60
2019-06-01T21:46:17.643Z,19.60
2019-06-01T21:48:44.440Z,19.40
2019-06-01T21:51:11.233Z,19.40
2019-06-01T21:53:38.020Z,19.40
2019-06-01T21:56:04.883Z,19.40
2019-06-01T21:58:31.803Z,19.40
2019-06-01T22:00:58.987Z,19.50
2019-06-01T22:03:27.343Z,19.50
2019-06-01T22:05:54.515Z,19.40
2019-06-01T22:08:21.501Z,19.40
2019-06-01T22:10:48.398Z,19.40
2019-06-01T22:13:18.485Z,19.30
2019-06-01T22:15:43.950Z,19.30
2019-06-01T22:18:10.826Z,19.30
2019-06-01T22:20:38.004Z,19.30
2019-06-01T22:23:04.860Z,19.30
2019-06-01T22:25:31.739Z,19.30
2019-06-01T22:27:58.595Z,19.30
2019-06-01T22:30:26.391Z,19.20
2019-06-01T22:32:53.553Z,19.30
2019-06-01T22:35:20.857Z,19.10
2019-06-01T22:37:47.767Z,19.20
2019-06-01T22:40:14.955Z,19.10
2019-06-01T22:42:41.940Z,19.00
2019-06-01T22:45:09.091Z,19.00
2019-06-01T22:47:35.903Z,18.90
2019-06-01T22:50:03.148Z,18.80
2019-06-01T22:52:31.219Z,18.80
2019-06-01T22:54:58.336Z,18.70
2019-06-01T22:57:26.230Z,18.70
2019-06-01T22:59:53.872Z,18.70
2019-06-01T23:02:21.546Z,18.50
2019-06-01T23:04:48.468Z,18.50
2019-06-01T23:07:15.343Z,18.50
2019-06-01T23:09:42.080Z,18.50
2019-06-01T23:12:08.823Z,18.50
2019-06-01T23:14:35.699Z,18.30
2019-06-01T23:17:02.639Z,18.30
2019-06-01T23:19:29.948Z,18.30
2019-06-01T23:21:56.966Z,18.20
2019-06-01T23:24:24.009Z,18.30
2019-06-01T23:26:51.095Z,18.20
2019-06-01T23:29:17.839Z,18.10
2019-06-01T23:31:44.564Z,18.10
2019-06-01T23:34:11.344Z,18.00
2019-06-01T23:36:38.071Z,18.00
2019-06-01T23:39:06.380Z,18.00
2019-06-01T23:41:33.088Z,18.00
2019-06-01T23:44:10.874Z,18.00
2019-06-01T23:46:29.151Z,18.00
2019-06-01T23:48:56.222Z,17.90
2019-06-01T23:51:23.353Z,17.80
2019-06-01T23:53:50.380Z,18.00
2019-06-01T23:56:17.256Z,17.90
2019-06-01T23:58:44.021Z,17.80
